Time;durP1;ratioP1;P1;durP2;ratioP2;P2;SDS_P1;SDS_P2;PMS_P1;PMS_P2;Temp;Humidity;BMP_temperature;BMP_pressure;BME280_temperature;BME280_humidity;BME280_pressure;Samples;Min_cycle;Max_cycle;Signal;HPM_P1;HPM_P2
2023/09/11 00:01:00;;;;;;;0.00;0.00;;;25.20;99.90;;;;;;5010360;28;20056;-87
2023/09/11 00:03:26;;;;;;;0.80;0.60;;;25.10;99.90;;;;;;5010707;28;20418;-88
2023/09/11 00:05:52;;;;;;;0.00;0.00;;;25.10;99.90;;;;;;5010851;28;20061;-90
2023/09/11 00:08:18;;;;;;;0.10;0.10;;;25.10;99.90;;;;;;5010350;28;20026;-80
2023/09/11 00:10:44;;;;;;;0.03;0.03;;;25.00;99.90;;;;;;5011051;28;20061;-92
2023/09/11 00:13:11;;;;;;;0.00;0.00;;;24.90;99.90;;;;;;5011024;28;20125;-92
2023/09/11 00:15:37;;;;;;;0.10;0.10;;;25.00;99.90;;;;;;5011115;28;20054;-92
2023/09/11 00:18:03;;;;;;;0.10;0.10;;;24.80;99.90;;;;;;5010919;28;20026;-91
2023/09/11 00:20:28;;;;;;;0.17;0.17;;;24.70;99.90;;;;;;5010937;28;20030;-93
2023/09/11 00:22:54;;;;;;;0.00;0.00;;;24.70;99.90;;;;;;5010125;28;20032;-94
2023/09/11 00:25:20;;;;;;;0.00;0.00;;;24.70;99.90;;;;;;4997850;28;20036;-92
2023/09/11 00:27:46;;;;;;;0.10;0.10;;;24.70;99.90;;;;;;5012428;28;20026;-92
2023/09/11 00:30:12;;;;;;;0.00;0.00;;;24.80;99.90;;;;;;5014199;28;20022;-93
2023/09/11 00:32:37;;;;;;;0.00;0.00;;;24.80;99.90;;;;;;5013043;28;20106;-92
2023/09/11 00:35:04;;;;;;;0.00;0.00;;;24.70;99.90;;;;;;5012782;28;20370;-89
2023/09/11 00:37:30;;;;;;;0.10;0.10;;;24.80;99.90;;;;;;5018072;28;20033;-93
2023/09/11 00:39:55;;;;;;;0.08;0.08;;;24.90;99.90;;;;;;5013023;28;20386;-87
2023/09/11 00:42:21;;;;;;;0.00;0.00;;;24.90;99.90;;;;;;5014234;28;20052;-89
2023/09/11 00:44:47;;;;;;;0.10;0.10;;;24.90;99.90;;;;;;5013596;28;20029;-87
2023/09/11 00:47:13;;;;;;;0.20;0.20;;;24.90;99.90;;;;;;5013741;28;20556;-85
2023/09/11 00:49:39;;;;;;;0.00;0.00;;;24.90;99.90;;;;;;5013908;28;20088;-91
2023/09/11 00:52:05;;;;;;;0.08;0.08;;;24.60;99.90;;;;;;5012217;28;20062;-85
2023/09/11 00:54:31;;;;;;;0.00;0.00;;;24.60;99.90;;;;;;5012415;28;20041;-85
2023/09/11 00:56:58;;;;;;;0.00;0.00;;;24.50;99.90;;;;;;4996117;28;20037;-85
2023/09/11 00:59:24;;;;;;;0.10;0.10;;;24.60;99.90;;;;;;5012141;28;20034;-86
2023/09/11 01:01:50;;;;;;;0.30;0.30;;;24.60;99.90;;;;;;5012399;28;20087;-91
2023/09/11 01:04:16;;;;;;;0.00;0.00;;;24.70;99.90;;;;;;5012179;28;20375;-87
2023/09/11 01:06:43;;;;;;;0.00;0.00;;;24.60;99.90;;;;;;5012692;28;20593;-83
2023/09/11 01:09:08;;;;;;;0.15;0.15;;;24.50;99.90;;;;;;5013620;28;20021;-83
2023/09/11 01:11:34;;;;;;;0.00;0.00;;;24.40;99.90;;;;;;5017342;28;20079;-87
2023/09/11 01:14:01;;;;;;;0.00;0.00;;;24.30;99.90;;;;;;5016856;28;20034;-82
2023/09/11 01:16:37;;;;;;;0.10;0.10;;;24.60;99.90;;;;;;5017944;28;20398;-92
2023/09/11 01:19:23;;;;;;;0.25;0.25;;;24.50;99.90;;;;;;5015385;28;20087;-92
2023/09/11 01:22:16;;;;;;;0.10;0.10;;;24.10;99.90;;;;;;5016956;28;20018;-91
2023/09/11 01:25:09;;;;;;;0.00;0.00;;;24.10;99.90;;;;;;5013402;28;20037;-92
2023/09/11 01:28:03;;;;;;;0.00;0.00;;;24.00;99.90;;;;;;5013562;28;20030;-92
2023/09/11 01:30:29;;;;;;;0.00;0.00;;;24.10;99.90;;;;;;5012117;28;20129;-90
2023/09/11 01:32:56;;;;;;;0.17;0.17;;;23.80;99.90;;;;;;5012221;28;20137;-92
2023/09/11 01:35:23;;;;;;;0.00;0.00;;;23.90;99.90;;;;;;5011878;28;20386;-93
2023/09/11 01:37:49;;;;;;;0.00;0.00;;;23.80;99.90;;;;;;4995720;28;20025;-92
2023/09/11 01:40:15;;;;;;;0.00;0.00;;;23.80;99.90;;;;;;5013433;28;20420;-92
2023/09/11 01:42:49;;;;;;;0.17;0.17;;;23.80;99.90;;;;;;5013140;28;20575;-92
2023/09/11 01:45:16;;;;;;;0.00;0.00;;;23.90;99.90;;;;;;5013369;28;20481;-93
2023/09/11 01:47:45;;;;;;;1.05;1.00;;;23.70;99.90;;;;;;5012955;28;20022;-92
2023/09/11 01:50:15;;;;;;;0.40;0.20;;;23.70;99.90;;;;;;5012144;28;20037;-89
2023/09/11 01:52:43;;;;;;;0.00;0.00;;;23.40;99.90;;;;;;5013148;28;20030;-92
2023/09/11 01:55:09;;;;;;;0.10;0.10;;;23.40;99.90;;;;;;5012017;28;20071;-89
2023/09/11 01:57:35;;;;;;;0.08;0.08;;;23.40;99.90;;;;;;5011506;28;20439;-91
2023/09/11 02:00:01;;;;;;;0.00;0.00;;;23.40;99.90;;;;;;5011603;28;20022;-91
2023/09/11 02:02:29;;;;;;;0.10;0.10;;;23.40;99.90;;;;;;4995100;28;20040;-92
2023/09/11 02:04:55;;;;;;;0.00;0.00;;;23.40;99.90;;;;;;5012840;28;20033;-87
2023/09/11 02:07:21;;;;;;;0.08;0.08;;;23.40;99.90;;;;;;5012740;28;20394;-82
2023/09/11 02:09:47;;;;;;;0.00;0.00;;;23.60;99.90;;;;;;5012523;28;20112;-91
2023/09/11 02:12:13;;;;;;;0.00;0.00;;;23.50;99.90;;;;;;5012556;28;20478;-89
2023/09/11 02:14:39;;;;;;;0.08;0.08;;;23.60;99.90;;;;;;5011401;28;20024;-92
2023/09/11 02:17:05;;;;;;;0.20;0.20;;;23.60;99.90;;;;;;5012428;28;20041;-91
2023/09/11 02:19:32;;;;;;;0.00;0.00;;;23.70;99.90;;;;;;5012743;28;20018;-90
2023/09/11 02:21:59;;;;;;;0.00;0.00;;;23.70;99.90;;;;;;5011373;28;20030;-91
2023/09/11 02:24:25;;;;;;;1.98;1.65;;;23.70;99.90;;;;;;5012621;28;20475;-86
2023/09/11 02:26:51;;;;;;;0.00;0.00;;;23.50;99.90;;;;;;5011334;28;20032;-90
2023/09/11 02:29:17;;;;;;;0.00;0.00;;;23.50;99.90;;;;;;5010685;28;20037;-84
2023/09/11 02:31:43;;;;;;;0.20;0.20;;;23.60;99.90;;;;;;5010719;28;20053;-86
2023/09/11 02:34:08;;;;;;;0.10;0.10;;;23.60;99.90;;;;;;5011690;28;20038;-91
2023/09/11 02:36:34;;;;;;;0.00;0.00;;;23.70;99.90;;;;;;5010976;28;20026;-84
2023/09/11 02:39:00;;;;;;;2.90;2.70;;;23.50;99.90;;;;;;4994540;28;20033;-89
2023/09/11 02:41:26;;;;;;;0.00;0.00;;;23.40;99.90;;;;;;4994779;28;20018;-88
2023/09/11 02:43:52;;;;;;;0.05;0.05;;;23.00;99.90;;;;;;5011062;28;20059;-90
2023/09/11 02:46:17;;;;;;;0.00;0.00;;;23.10;99.90;;;;;;5012109;28;20539;-87
2023/09/11 02:48:45;;;;;;;0.00;0.00;;;23.10;99.90;;;;;;5011652;28;20025;-91
2023/09/11 02:51:11;;;;;;;0.00;0.00;;;23.30;99.90;;;;;;5013775;28;20686;-92
2023/09/11 02:53:38;;;;;;;0.00;0.00;;;23.40;99.90;;;;;;5011913;28;20032;-85
2023/09/11 02:56:04;;;;;;;0.03;0.03;;;23.40;99.90;;;;;;5011593;28;20038;-88
2023/09/11 02:58:30;;;;;;;0.00;0.00;;;23.50;99.90;;;;;;4997624;28;20026;-79
2023/09/11 03:01:02;;;;;;;0.05;0.05;;;23.50;99.90;;;;;;5025582;28;20026;-86
2023/09/11 03:03:28;;;;;;;0.00;0.00;;;23.50;99.90;;;;;;5023961;28;20107;-88
2023/09/11 03:06:01;;;;;;;0.00;0.00;;;23.50;99.90;;;;;;5022401;28;20034;-88
2023/09/11 03:08:27;;;;;;;0.00;0.00;;;23.50;99.90;;;;;;5019673;28;20030;-86
2023/09/11 03:11:02;;;;;;;0.47;0.47;;;23.60;99.90;;;;;;5020084;28;20117;-82
2023/09/11 03:13:28;;;;;;;0.00;0.00;;;23.40;99.90;;;;;;5016831;28;20180;-89
2023/09/11 03:15:54;;;;;;;0.35;0.35;;;23.30;99.90;;;;;;5010498;28;20064;-88
2023/09/11 03:18:20;;;;;;;0.00;0.00;;;23.10;99.90;;;;;;5009876;28;20042;-86
2023/09/11 03:20:53;;;;;;;0.10;0.10;;;22.70;99.90;;;;;;5010003;28;20029;-87
2023/09/11 03:23:21;;;;;;;0.10;0.10;;;22.90;99.90;;;;;;5009849;28;20101;-87
2023/09/11 03:25:47;;;;;;;0.70;0.70;;;22.90;99.90;;;;;;5009900;28;20022;-85
2023/09/11 03:28:14;;;;;;;0.45;0.45;;;22.80;99.90;;;;;;5009812;28;20462;-89
2023/09/11 03:30:40;;;;;;;0.50;0.50;;;22.60;99.90;;;;;;5010762;28;20067;-82
2023/09/11 03:33:06;;;;;;;0.55;0.32;;;22.50;99.90;;;;;;5009561;28;20468;-80
2023/09/11 03:35:32;;;;;;;1.05;1.05;;;22.50;99.90;;;;;;4994438;28;20030;-91
2023/09/11 03:37:58;;;;;;;0.00;0.00;;;22.40;99.90;;;;;;5010190;28;20022;-92
2023/09/11 03:40:25;;;;;;;0.00;0.00;;;22.50;99.90;;;;;;5011707;28;20029;-92
2023/09/11 03:42:50;;;;;;;0.00;0.00;;;22.60;99.90;;;;;;5010759;28;20026;-91
2023/09/11 03:45:16;;;;;;;0.00;0.00;;;22.60;99.90;;;;;;5011548;28;20363;-93
2023/09/11 03:47:42;;;;;;;0.00;0.00;;;22.50;99.90;;;;;;5011120;28;20141;-91
2023/09/11 03:50:09;;;;;;;0.00;0.00;;;22.50;99.90;;;;;;5010300;28;20022;-81
2023/09/11 03:52:35;;;;;;;0.32;0.32;;;22.70;99.90;;;;;;5010159;28;20030;-92
2023/09/11 03:55:02;;;;;;;0.00;0.00;;;22.80;99.90;;;;;;5010293;28;20033;-87
2023/09/11 03:57:28;;;;;;;0.00;0.00;;;22.70;99.90;;;;;;5010010;28;20039;-92
2023/09/11 03:59:53;;;;;;;8.25;1.75;;;22.50;99.90;;;;;;5009907;28;20407;-91
2023/09/11 04:02:19;;;;;;;0.65;0.65;;;22.30;99.90;;;;;;5009292;28;20034;-92
2023/09/11 04:04:45;;;;;;;0.00;0.00;;;22.20;99.90;;;;;;5011144;28;20033;-92
2023/09/11 04:07:11;;;;;;;1.65;0.60;;;22.00;99.90;;;;;;5011504;28;20034;-91
2023/09/11 04:09:37;;;;;;;0.00;0.00;;;21.80;99.90;;;;;;5009711;28;20025;-91
2023/09/11 04:12:03;;;;;;;0.08;0.08;;;21.80;99.90;;;;;;5011001;28;20034;-91
2023/09/11 04:14:29;;;;;;;0.10;0.10;;;22.20;99.90;;;;;;5009650;28;20033;-90
2023/09/11 04:16:56;;;;;;;3.33;2.83;;;22.30;99.90;;;;;;5009464;28;20026;-91
2023/09/11 04:19:22;;;;;;;0.00;0.00;;;22.20;99.90;;;;;;5011036;28;20034;-92
2023/09/11 04:21:48;;;;;;;0.10;0.10;;;22.10;99.90;;;;;;5009645;28;20163;-89
2023/09/11 04:24:14;;;;;;;0.75;0.75;;;22.00;99.90;;;;;;5010632;28;20029;-91
2023/09/11 04:26:43;;;;;;;0.08;0.08;;;22.00;99.90;;;;;;5010364;28;20037;-92
2023/09/11 04:29:11;;;;;;;0.00;0.00;;;22.00;99.90;;;;;;5010552;28;20034;-92
2023/09/11 04:31:38;;;;;;;0.00;0.00;;;21.90;99.90;;;;;;5009343;28;20041;-90
2023/09/11 04:34:07;;;;;;;0.00;0.00;;;22.10;99.90;;;;;;5009469;28;20171;-92
2023/09/11 04:36:33;;;;;;;0.00;0.00;;;22.30;99.90;;;;;;5009099;28;20079;-92
2023/09/11 04:39:01;;;;;;;0.00;0.00;;;22.30;99.90;;;;;;5009540;28;20105;-92
2023/09/11 04:41:28;;;;;;;0.52;0.52;;;22.40;99.90;;;;;;5010842;28;20618;-92
2023/09/11 04:43:54;;;;;;;0.00;0.00;;;22.40;99.90;;;;;;5009613;28;20079;-91
2023/09/11 04:46:20;;;;;;;0.43;0.43;;;22.10;99.90;;;;;;5009052;28;20038;-85
2023/09/11 04:48:46;;;;;;;0.00;0.00;;;22.20;99.90;;;;;;5009053;28;20037;-85
2023/09/11 04:51:12;;;;;;;0.47;0.47;;;22.30;99.90;;;;;;5010443;28;20486;-85
2023/09/11 04:53:38;;;;;;;4.28;1.88;;;22.00;99.90;;;;;;5008955;28;20034;-91
2023/09/11 04:56:04;;;;;;;0.00;0.00;;;21.50;99.90;;;;;;5009579;28;20022;-92
2023/09/11 04:58:30;;;;;;;0.28;0.28;;;21.30;99.90;;;;;;5009074;28;20068;-87
2023/09/11 05:00:56;;;;;;;0.10;0.10;;;21.50;99.90;;;;;;5008784;28;20441;-89
2023/09/11 05:03:25;;;;;;;0.00;0.00;;;21.50;99.90;;;;;;5008966;28;20054;-90
2023/09/11 05:05:51;;;;;;;0.30;0.30;;;21.70;99.90;;;;;;5007870;28;20022;-90
2023/09/11 05:08:17;;;;;;;0.20;0.20;;;21.80;99.90;;;;;;5009888;28;20014;-79
2023/09/11 05:10:44;;;;;;;0.20;0.20;;;21.90;99.90;;;;;;4993892;28;20107;-87
2023/09/11 05:13:11;;;;;;;0.00;0.00;;;21.90;99.90;;;;;;4997169;28;20040;-90
2023/09/11 05:15:38;;;;;;;0.00;0.00;;;22.10;99.90;;;;;;5013120;28;20022;-84
2023/09/11 05:18:04;;;;;;;1.67;1.42;;;21.60;99.90;;;;;;5012270;28;20026;-77
2023/09/11 05:20:30;;;;;;;1.15;1.15;;;21.20;99.90;;;;;;5013048;28;20022;-86
2023/09/11 05:22:57;;;;;;;0.00;0.00;;;21.30;99.90;;;;;;5011950;28;20025;-87
2023/09/11 05:25:23;;;;;;;0.00;0.00;;;21.50;99.90;;;;;;5013287;28;20391;-89
2023/09/11 05:27:50;;;;;;;0.03;0.03;;;21.80;99.90;;;;;;5031661;28;20478;-81
2023/09/11 05:30:16;;;;;;;0.03;0.03;;;21.70;99.90;;;;;;5030659;28;20020;-79
2023/09/11 05:32:42;;;;;;;0.03;0.03;;;21.80;99.90;;;;;;5013259;28;20053;-82
2023/09/11 05:35:08;;;;;;;0.00;0.00;;;21.80;99.90;;;;;;5034750;28;20378;-76
2023/09/11 05:37:34;;;;;;;0.00;0.00;;;21.90;99.90;;;;;;5024606;28;20022;-79
2023/09/11 05:40:00;;;;;;;0.10;0.10;;;21.90;99.90;;;;;;5018412;28;20037;-82
2023/09/11 05:42:26;;;;;;;0.00;0.00;;;22.00;99.90;;;;;;5037759;28;20049;-79
2023/09/11 05:44:52;;;;;;;0.90;0.80;;;21.90;99.90;;;;;;5092908;28;20020;-80
2023/09/11 05:47:19;;;;;;;0.15;0.05;;;22.00;99.90;;;;;;5056083;28;20086;-80
2023/09/11 05:49:45;;;;;;;1.98;1.05;;;22.00;99.90;;;;;;5037543;28;20057;-78
2023/09/11 05:52:11;;;;;;;0.00;0.00;;;21.80;99.90;;;;;;5024867;28;20056;-78
2023/09/11 05:54:37;;;;;;;0.00;0.00;;;22.10;99.90;;;;;;5045668;28;20101;-77
2023/09/11 05:57:03;;;;;;;0.03;0.03;;;22.30;99.90;;;;;;5064168;28;20018;-77
2023/09/11 05:59:29;;;;;;;0.20;0.20;;;22.30;99.90;;;;;;5045939;28;20222;-78
2023/09/11 06:01:55;;;;;;;0.00;0.00;;;22.40;99.90;;;;;;5036736;28;20042;-78
2023/09/11 06:04:21;;;;;;;0.00;0.00;;;22.50;99.90;;;;;;5037987;28;20051;-78
2023/09/11 06:06:47;;;;;;;0.00;0.00;;;22.70;99.90;;;;;;5090358;28;20084;-76
2023/09/11 06:09:12;;;;;;;0.00;0.00;;;22.70;99.90;;;;;;5052194;28;20038;-77
2023/09/11 06:11:38;;;;;;;0.20;0.20;;;22.80;99.90;;;;;;5033415;28;20026;-76
2023/09/11 06:14:06;;;;;;;0.10;0.10;;;22.40;99.90;;;;;;5025764;28;20528;-79
2023/09/11 06:16:32;;;;;;;2.83;1.27;;;21.90;99.90;;;;;;5040656;28;20028;-80
2023/09/11 06:18:58;;;;;;;3.40;1.08;;;21.90;99.90;;;;;;5080363;28;20096;-77
2023/09/11 06:21:24;;;;;;;5.95;2.53;;;22.10;99.90;;;;;;5038804;28;20057;-76
2023/09/11 06:23:50;;;;;;;1.58;1.48;;;22.20;99.90;;;;;;5021021;28;20049;-77
2023/09/11 06:26:16;;;;;;;0.25;0.25;;;22.20;99.90;;;;;;5022475;28;20478;-78
2023/09/11 06:28:43;;;;;;;0.00;0.00;;;22.30;99.90;;;;;;5047481;28;20024;-79
2023/09/11 06:31:09;;;;;;;0.20;0.20;;;22.60;99.90;;;;;;5080618;28;20016;-81
2023/09/11 06:33:35;;;;;;;4.05;2.55;;;22.80;99.90;;;;;;5037831;28;20038;-80
2023/09/11 06:36:02;;;;;;;0.00;0.00;;;22.70;99.90;;;;;;5039627;28;20542;-77
2023/09/11 06:38:28;;;;;;;0.40;0.40;;;22.60;99.90;;;;;;5022658;28;20100;-76
2023/09/11 06:40:55;;;;;;;0.00;0.00;;;22.60;99.90;;;;;;5014708;28;20105;-77
2023/09/11 06:43:21;;;;;;;0.20;0.20;;;22.60;99.90;;;;;;5074664;28;20110;-78
2023/09/11 06:45:52;;;;;;;0.13;0.13;;;22.60;99.90;;;;;;5062199;28;20030;-75
2023/09/11 06:48:18;;;;;;;2.95;1.88;;;22.80;99.90;;;;;;5018231;28;20020;-77
2023/09/11 06:50:44;;;;;;;3.25;1.17;;;22.80;99.90;;;;;;5023479;28;20516;-76
2023/09/11 06:53:10;;;;;;;0.43;0.43;;;23.00;99.90;;;;;;5010552;28;20049;-75
2023/09/11 06:55:42;;;;;;;1.88;1.38;;;23.30;99.90;;;;;;5026677;28;20103;-76
2023/09/11 06:58:08;;;;;;;0.00;0.00;;;23.30;99.90;;;;;;5025734;28;20498;-84
2023/09/11 07:00:34;;;;;;;0.00;0.00;;;23.20;99.90;;;;;;5037027;28;20106;-84
2023/09/11 07:03:00;;;;;;;5.68;3.35;;;23.10;99.90;;;;;;5019257;28;20105;-82
2023/09/11 07:05:27;;;;;;;0.00;0.00;;;22.70;99.90;;;;;;5058335;28;20021;-83
2023/09/11 07:07:53;;;;;;;6.47;2.63;;;22.90;99.90;;;;;;5034914;28;20091;-82
2023/09/11 07:10:19;;;;;;;6.20;5.10;;;22.90;99.90;;;;;;5031173;28;20019;-83
2023/09/11 07:12:46;;;;;;;0.00;0.00;;;23.00;99.90;;;;;;5036183;28;20042;-83
2023/09/11 07:15:12;;;;;;;6.55;1.13;;;23.00;99.90;;;;;;5014831;28;20033;-83
2023/09/11 07:17:38;;;;;;;0.88;0.88;;;22.90;99.90;;;;;;5023891;28;20031;-82
2023/09/11 07:20:05;;;;;;;18.55;4.15;;;22.80;99.90;;;;;;5028731;28;20030;-83
2023/09/11 07:22:31;;;;;;;1.38;0.85;;;22.90;99.90;;;;;;5059532;28;20059;-83
2023/09/11 07:24:57;;;;;;;1.23;1.15;;;23.40;99.90;;;;;;5022638;28;20018;-82
2023/09/11 07:27:26;;;;;;;5.45;2.50;;;23.40;99.90;;;;;;5010561;28;20512;-81
2023/09/11 07:29:52;;;;;;;2.83;2.08;;;23.20;99.90;;;;;;5030341;28;20032;-82
2023/09/11 07:32:18;;;;;;;0.70;0.70;;;23.10;99.90;;;;;;5015826;28;20102;-82
2023/09/11 07:34:44;;;;;;;17.33;2.38;;;23.50;99.90;;;;;;5045769;28;20033;-84
2023/09/11 07:37:10;;;;;;;0.00;0.00;;;23.30;99.90;;;;;;5017718;28;20025;-83
2023/09/11 07:39:35;;;;;;;5.90;2.55;;;23.50;99.90;;;;;;5026656;28;20053;-81
2023/09/11 07:42:01;;;;;;;2.17;1.65;;;23.60;99.90;;;;;;5020204;28;20386;-82
2023/09/11 07:44:27;;;;;;;19.63;18.00;;;23.80;99.90;;;;;;5036137;28;20023;-81
2023/09/11 07:46:53;;;;;;;0.80;0.80;;;24.20;99.90;;;;;;5071816;28;20026;-82
2023/09/11 07:49:18;;;;;;;2.08;1.48;;;24.10;99.90;;;;;;5034869;28;20501;-75
2023/09/11 07:51:45;;;;;;;0.10;0.10;;;23.80;99.90;;;;;;5022243;28;20038;-74
2023/09/11 07:54:11;;;;;;;0.38;0.38;;;23.80;99.90;;;;;;5024334;28;20106;-75
2023/09/11 07:56:38;;;;;;;0.00;0.00;;;23.60;99.90;;;;;;5080848;28;20420;-74
2023/09/11 07:59:04;;;;;;;1.33;0.85;;;23.80;99.90;;;;;;5042832;28;20056;-74
2023/09/11 08:01:30;;;;;;;1.20;0.85;;;24.10;99.90;;;;;;5030744;28;20113;-75
2023/09/11 08:03:56;;;;;;;0.28;0.28;;;24.10;99.90;;;;;;5022519;28;20034;-74
2023/09/11 08:06:24;;;;;;;0.65;0.65;;;24.10;99.90;;;;;;5026441;28;20099;-75
2023/09/11 08:08:50;;;;;;;0.95;0.93;;;24.50;99.90;;;;;;5051922;28;20031;-74
2023/09/11 08:11:20;;;;;;;0.00;0.00;;;24.50;99.90;;;;;;5039269;28;20021;-76
2023/09/11 08:13:46;;;;;;;1.60;1.50;;;24.40;99.90;;;;;;5021028;28;20124;-75
2023/09/11 08:16:14;;;;;;;0.10;0.10;;;24.70;99.90;;;;;;5013492;28;20478;-76
2023/09/11 08:18:40;;;;;;;4.35;1.05;;;24.40;99.90;;;;;;5045042;28;20015;-77
2023/09/11 08:21:06;;;;;;;0.80;0.80;;;24.40;99.90;;;;;;5033131;28;20086;-77
2023/09/11 08:23:32;;;;;;;2.15;2.05;;;24.40;99.90;;;;;;5020076;28;20022;-76
2023/09/11 08:25:59;;;;;;;0.63;0.45;;;24.50;99.90;;;;;;5022682;28;20060;-76
2023/09/11 08:28:25;;;;;;;0.10;0.10;;;24.80;99.90;;;;;;5007964;28;20022;-77
2023/09/11 08:30:51;;;;;;;1.05;1.00;;;25.10;99.90;;;;;;5041535;28;20028;-77
2023/09/11 08:33:17;;;;;;;2.08;1.88;;;25.20;99.90;;;;;;5043109;28;20038;-77
2023/09/11 08:35:43;;;;;;;0.20;0.20;;;25.40;99.90;;;;;;5030434;28;20090;-76
2023/09/11 08:38:09;;;;;;;0.60;0.60;;;25.20;99.90;;;;;;5030554;28;20040;-76
2023/09/11 08:40:35;;;;;;;0.25;0.25;;;25.20;99.90;;;;;;5015467;28;20018;-77
2023/09/11 08:43:02;;;;;;;0.28;0.28;;;25.20;99.90;;;;;;5059820;28;20027;-76
2023/09/11 08:45:28;;;;;;;5.97;2.75;;;25.20;99.90;;;;;;5072099;28;20097;-77
2023/09/11 08:47:58;;;;;;;0.20;0.20;;;25.10;99.90;;;;;;5051592;28;20087;-76
2023/09/11 08:50:32;;;;;;;0.30;0.30;;;25.40;99.90;;;;;;5044300;28;20024;-77
2023/09/11 08:53:01;;;;;;;0.10;0.10;;;25.50;99.90;;;;;;5012135;28;20045;-77
2023/09/11 08:55:33;;;;;;;0.00;0.00;;;25.50;99.90;;;;;;5042080;28;20482;-77
2023/09/11 08:58:04;;;;;;;;;;;25.70;99.90;;;;;;5034052;28;20052;-77
2023/09/11 09:00:31;;;;;;;10.73;0.90;;;26.00;99.90;;;;;;5033683;28;20002;-78
2023/09/11 09:03:00;;;;;;;1.25;0.80;;;26.00;99.90;;;;;;5019463;28;20030;-76
2023/09/11 09:05:26;;;;;;;1.00;0.68;;;26.00;99.90;;;;;;5025533;28;20065;-77
2023/09/11 09:07:53;;;;;;;4.07;2.53;;;26.10;99.90;;;;;;5013217;28;20022;-76
2023/09/11 09:10:19;;;;;;;1.02;0.93;;;25.80;99.90;;;;;;5073057;28;20028;-76
2023/09/11 09:12:45;;;;;;;0.43;0.13;;;26.10;99.90;;;;;;5038290;28;20500;-78
2023/09/11 09:15:12;;;;;;;0.10;0.10;;;26.70;99.90;;;;;;5016558;28;20030;-79
2023/09/11 09:17:38;;;;;;;0.50;0.50;;;26.60;99.90;;;;;;5013998;28;20029;-81
2023/09/11 09:20:05;;;;;;;2.22;2.03;;;26.90;99.90;;;;;;5074517;28;20474;-79
2023/09/11 09:22:31;;;;;;;3.83;2.20;;;26.60;99.90;;;;;;5047388;28;20539;-85
2023/09/11 09:24:57;;;;;;;1.05;0.95;;;26.50;99.90;;;;;;5025445;28;20070;-79
2023/09/11 09:27:26;;;;;;;0.98;0.68;;;26.70;99.90;;;;;;5013869;28;20030;-84
2023/09/11 09:29:52;;;;;;;0.20;0.20;;;26.80;99.90;;;;;;5074911;28;20032;-82
2023/09/11 09:32:18;;;;;;;0.90;0.38;;;27.00;99.90;;;;;;5077522;28;20028;-83
2023/09/11 09:34:53;;;;;;;7.45;0.93;;;27.00;99.90;;;;;;5048580;28;20473;-79
2023/09/11 09:37:21;;;;;;;1.27;0.22;;;26.80;99.90;;;;;;5021603;28;20046;-82
2023/09/11 09:39:48;;;;;;;1.38;1.05;;;27.00;99.90;;;;;;5019770;28;20462;-78
2023/09/11 09:42:15;;;;;;;0.10;0.10;;;27.40;99.90;;;;;;5023751;28;20031;-82
2023/09/11 09:44:48;;;;;;;0.20;0.20;;;27.80;99.90;;;;;;5039145;28;20102;-85
2023/09/11 09:47:18;;;;;;;0.00;0.00;;;27.60;99.90;;;;;;5018186;28;20120;-80
2023/09/11 09:49:54;;;;;;;0.20;0.20;;;27.10;99.90;;;;;;5037326;28;20040;-79
2023/09/11 09:52:29;;;;;;;0.20;0.20;;;27.10;99.90;;;;;;5009980;28;20061;-79
2023/09/11 09:54:58;;;;;;;4.72;0.45;;;27.40;99.90;;;;;;5058399;28;20026;-79
2023/09/11 09:57:26;;;;;;;0.40;0.40;;;27.70;99.90;;;;;;5036683;28;20509;-79
2023/09/11 09:59:57;;;;;;;0.90;0.90;;;27.70;99.90;;;;;;5018254;28;20030;-80
2023/09/11 10:02:26;;;;;;;0.52;0.40;;;28.00;99.90;;;;;;5024181;28;20030;-79
2023/09/11 10:04:57;;;;;;;0.00;0.00;;;27.90;99.90;;;;;;5055830;28;20028;-77
2023/09/11 10:07:43;;;;;;;0.00;0.00;;;27.80;99.90;;;;;;5064581;28;20067;-79
2023/09/11 10:10:20;;;;;;;0.20;0.20;;;27.60;99.90;;;;;;5056812;28;20038;-78
2023/09/11 10:12:46;;;;;;;1.08;0.50;;;28.10;99.90;;;;;;5015942;28;20091;-77
2023/09/11 10:15:12;;;;;;;0.05;0.05;;;28.00;98.60;;;;;;5015747;28;20081;-78
2023/09/11 10:17:39;;;;;;;0.47;0.20;;;28.00;99.70;;;;;;5042377;28;20042;-79
2023/09/11 10:20:06;;;;;;;0.30;0.30;;;28.50;99.90;;;;;;5063174;28;20018;-79
2023/09/11 10:22:32;;;;;;;0.68;0.68;;;28.30;99.50;;;;;;5041016;28;20079;-81
2023/09/11 10:24:58;;;;;;;0.68;0.68;;;28.20;99.90;;;;;;5010639;28;20022;-79
2023/09/11 10:27:24;;;;;;;2.83;1.27;;;28.20;99.90;;;;;;5009989;28;20033;-79
2023/09/11 10:30:00;;;;;;;0.00;0.00;;;27.90;99.90;;;;;;5011164;28;20022;-80
2023/09/11 10:32:34;;;;;;;1.63;0.85;;;28.10;99.90;;;;;;5010147;28;20042;-79
2023/09/11 10:35:02;;;;;;;0.00;0.00;;;28.50;99.90;;;;;;5009752;28;20014;-79
2023/09/11 10:37:30;;;;;;;4.95;1.83;;;28.50;99.70;;;;;;5011307;28;20042;-78
2023/09/11 10:39:59;;;;;;;0.85;0.40;;;28.30;99.40;;;;;;5011586;28;20500;-79
2023/09/11 10:42:25;;;;;;;0.28;0.13;;;28.50;99.90;;;;;;5011837;28;20034;-78
2023/09/11 10:44:53;;;;;;;1.13;0.88;;;28.80;99.90;;;;;;5009890;28;20079;-79
2023/09/11 10:47:19;;;;;;;3.03;1.40;;;28.90;98.90;;;;;;5010751;28;20026;-79
2023/09/11 10:49:49;;;;;;;1.40;1.02;;;28.70;98.50;;;;;;5009930;28;20390;-79
2023/09/11 10:52:16;;;;;;;0.25;0.20;;;28.60;99.90;;;;;;5010877;28;20022;-78
2023/09/11 10:54:42;;;;;;;3.20;0.60;;;28.90;99.10;;;;;;5011340;28;20022;-79
2023/09/11 10:57:08;;;;;;;1.30;1.20;;;29.10;99.40;;;;;;5010846;28;20022;-79
2023/09/11 10:59:34;;;;;;;0.20;0.20;;;28.90;99.00;;;;;;5009891;28;20370;-79
2023/09/11 11:02:02;;;;;;;0.55;0.55;;;29.10;98.40;;;;;;5011067;28;20120;-83
2023/09/11 11:04:31;;;;;;;2.42;1.05;;;29.40;97.80;;;;;;5010593;28;20071;-83
2023/09/11 11:06:58;;;;;;;0.30;0.30;;;29.20;98.60;;;;;;5010851;28;20034;-82
2023/09/11 11:09:31;;;;;;;0.20;0.20;;;29.20;99.20;;;;;;5010638;28;20030;-81
2023/09/11 11:12:08;;;;;;;0.17;0.17;;;29.30;98.40;;;;;;5009774;28;20578;-80
2023/09/11 11:14:35;;;;;;;0.38;0.38;;;29.20;98.40;;;;;;5011247;28;20473;-81
2023/09/11 11:17:10;;;;;;;4.40;0.52;;;29.70;97.40;;;;;;5012751;28;20198;-85
2023/09/11 11:19:39;;;;;;;3.42;0.85;;;29.50;98.10;;;;;;5011168;28;20101;-84
2023/09/11 11:22:07;;;;;;;0.10;0.10;;;29.70;98.60;;;;;;5011143;28;20116;-84
2023/09/11 11:24:49;;;;;;;1.60;0.98;;;29.90;98.10;;;;;;5011153;28;20025;-84
2023/09/11 11:27:15;;;;;;;0.10;0.10;;;29.70;97.80;;;;;;5010064;28;20064;-83
2023/09/11 11:29:41;;;;;;;0.00;0.00;;;30.20;96.70;;;;;;5011250;28;20065;-83
2023/09/11 11:32:10;;;;;;;0.25;0.15;;;30.10;95.90;;;;;;5010733;28;20095;-83
2023/09/11 11:34:39;;;;;;;1.67;1.00;;;30.20;95.60;;;;;;5011367;28;20056;-83
2023/09/11 11:37:05;;;;;;;0.17;0.17;;;29.80;94.80;;;;;;5009722;28;20078;-83
2023/09/11 11:39:36;;;;;;;0.20;0.20;;;29.90;95.00;;;;;;5010901;28;20022;-82
2023/09/11 11:42:03;;;;;;;0.08;0.08;;;30.60;94.40;;;;;;5010665;28;20028;-82
2023/09/11 11:44:33;;;;;;;0.68;0.40;;;29.90;95.00;;;;;;5010252;28;20030;-83
2023/09/11 11:46:59;;;;;;;0.30;0.30;;;30.20;96.00;;;;;;5010757;28;20030;-84
2023/09/11 11:49:25;;;;;;;0.45;0.45;;;30.70;95.10;;;;;;5009111;28;20034;-82
2023/09/11 11:51:51;;;;;;;0.00;0.00;;;31.50;94.00;;;;;;5010802;28;20026;-83
2023/09/11 11:54:27;;;;;;;0.00;0.00;;;31.60;93.90;;;;;;5010127;28;20390;-85
2023/09/11 11:57:01;;;;;;;1.58;1.48;;;31.90;94.60;;;;;;5010437;28;20026;-86
2023/09/11 11:59:32;;;;;;;0.03;0.03;;;31.70;96.00;;;;;;4996707;28;20496;-83
2023/09/11 12:01:58;;;;;;;0.35;0.35;;;31.70;97.40;;;;;;5010172;28;20041;-85
2023/09/11 12:04:25;;;;;;;0.57;0.57;;;32.10;98.30;;;;;;5008672;28;20038;-83
2023/09/11 12:06:53;;;;;;;3.00;2.35;;;31.40;99.90;;;;;;5010361;28;20026;-84
2023/09/11 12:09:21;;;;;;;3.80;1.95;;;31.30;99.90;;;;;;5008726;28;20026;-84
2023/09/11 12:11:49;;;;;;;1.98;1.40;;;30.90;99.90;;;;;;5010152;28;20072;-83
2023/09/11 12:14:16;;;;;;;1.52;1.27;;;30.90;99.90;;;;;;5009535;28;20030;-84
2023/09/11 12:16:43;;;;;;;0.57;0.57;;;30.80;99.90;;;;;;5010220;28;20466;-77
2023/09/11 12:19:09;;;;;;;2.47;2.28;;;31.00;99.90;;;;;;5008607;28;20041;-76
2023/09/11 12:21:35;;;;;;;5.05;2.00;;;31.50;99.90;;;;;;5009901;28;20087;-79
2023/09/11 12:24:01;;;;;;;9.30;2.58;;;31.20;99.90;;;;;;5012732;28;20026;-82
2023/09/11 12:26:29;;;;;;;0.20;0.13;;;30.80;99.90;;;;;;5013396;28;20060;-77
2023/09/11 12:28:57;;;;;;;4.75;2.13;;;31.20;99.90;;;;;;5011741;28;20026;-79
2023/09/11 12:31:23;;;;;;;2.58;1.58;;;31.50;99.60;;;;;;5013812;28;20477;-77
2023/09/11 12:33:53;;;;;;;2.78;1.60;;;31.80;99.40;;;;;;5013338;28;20038;-78
2023/09/11 12:36:23;;;;;;;0.08;0.08;;;31.60;99.40;;;;;;5011709;28;20082;-79
2023/09/11 12:38:49;;;;;;;1.40;1.27;;;32.80;98.90;;;;;;5013212;28;20026;-82
2023/09/11 12:41:17;;;;;;;0.77;0.73;;;33.70;96.40;;;;;;5013232;28;20097;-80
2023/09/11 12:43:43;;;;;;;0.00;0.00;;;33.00;97.70;;;;;;5012951;28;20022;-78
2023/09/11 12:46:11;;;;;;;0.40;0.40;;;33.00;97.40;;;;;;5013081;28;20096;-78
2023/09/11 12:48:49;;;;;;;1.85;1.60;;;32.80;96.40;;;;;;5013025;28;20021;-78